Time;durP1;ratioP1;P1;durP2;ratioP2;P2;SDS_P1;SDS_P2;PMS_P1;PMS_P2;Temp;Humidity;BMP_temperature;BMP_pressure;BME280_temperature;BME280_humidity;BME280_pressure;Samples;Min_cycle;Max_cycle;Signal;HPM_P1;HPM_P2
2022/05/30 00:01:18;;;;;;;;;;;16.20;99.90;;;;;;4591377;19;19938;-24
2022/05/30 00:02:50;;;;;;;;;;;16.20;99.90;;;;;;4591597;19;20253;-28
2022/05/30 00:04:20;;;;;;;;;;;16.20;99.90;;;;;;4590212;19;19952;-24
2022/05/30 00:05:51;;;;;;;;;;;16.20;99.90;;;;;;4593496;19;20301;-24
2022/05/30 00:07:22;;;;;;;;;;;16.20;99.90;;;;;;4593550;19;19915;-28
2022/05/30 00:08:53;;;;;;;;;;;16.20;99.90;;;;;;4593117;19;19919;-23
2022/05/30 00:10:24;;;;;;;;;;;16.20;99.90;;;;;;4592751;19;19915;-23
2022/05/30 00:11:55;;;;;;;;;;;16.20;99.90;;;;;;4592628;19;20638;-23
2022/05/30 00:13:26;;;;;;;;;;;16.20;99.90;;;;;;4592451;19;19922;-25
2022/05/30 00:14:57;;;;;;;;;;;16.20;99.90;;;;;;4591819;19;19922;-24
2022/05/30 00:16:29;;;;;;;;;;;16.20;99.90;;;;;;4590663;19;19914;-24
2022/05/30 00:18:00;;;;;;;;;;;16.20;99.90;;;;;;4590382;19;19918;-27
2022/05/30 00:19:31;;;;;;;;;;;16.20;99.90;;;;;;4593546;19;19970;-24
2022/05/30 00:21:03;;;;;;;;;;;16.20;99.90;;;;;;4593368;19;19923;-26
2022/05/30 00:22:33;;;;;;;;;;;16.20;99.90;;;;;;4591589;19;19921;-24
2022/05/30 00:24:04;;;;;;;;;;;16.20;99.90;;;;;;4592716;19;19925;-24
2022/05/30 00:25:38;;;;;;;;;;;16.20;99.90;;;;;;4591894;19;19919;-30
2022/05/30 00:27:09;;;;;;;;;;;16.20;99.90;;;;;;4590996;19;19922;-26
2022/05/30 00:28:40;;;;;;;;;;;16.20;99.90;;;;;;4591157;19;19975;-24
2022/05/30 00:30:11;;;;;;;;;;;16.20;99.90;;;;;;4593536;19;19911;-27
2022/05/30 00:31:42;;;;;;;;;;;16.20;99.90;;;;;;4593116;19;20295;-24
2022/05/30 00:33:14;;;;;;;;;;;16.20;99.90;;;;;;4592596;19;19926;-24
2022/05/30 00:34:44;;;;;;;;;;;16.20;99.90;;;;;;4592608;19;19938;-24
2022/05/30 00:36:15;;;;;;;;;;;16.20;99.90;;;;;;4592228;19;19971;-29
2022/05/30 00:37:46;;;;;;;;;;;16.20;99.90;;;;;;4591615;19;19910;-25
2022/05/30 00:39:17;;;;;;;;;;;16.20;99.90;;;;;;4591064;19;19933;-28
2022/05/30 00:40:48;;;;;;;;;;;16.20;99.90;;;;;;4591088;19;19918;-25
2022/05/30 00:42:20;;;;;;;;;;;16.20;99.90;;;;;;4589608;19;19981;-25
2022/05/30 00:43:50;;;;;;;;;;;16.20;99.90;;;;;;4593236;19;19922;-26
2022/05/30 00:45:22;;;;;;;;;;;16.20;99.90;;;;;;4592801;19;20242;-25
2022/05/30 00:46:52;;;;;;;;;;;16.20;99.90;;;;;;4592907;19;19934;-25
2022/05/30 00:48:26;;;;;;;;;;;16.20;99.90;;;;;;4592045;19;19978;-25
2022/05/30 00:49:57;;;;;;;;;;;16.20;99.90;;;;;;4590687;19;19932;-24
2022/05/30 00:51:38;;;;;;;;;;;16.20;99.90;;;;;;4590521;19;19978;-24
2022/05/30 00:53:09;;;;;;;;;;;16.20;99.90;;;;;;4590402;19;20398;-26
2022/05/30 00:54:42;;;;;;;;;;;16.20;99.90;;;;;;4589769;19;19915;-30
2022/05/30 00:56:13;;;;;;;;;;;16.20;99.90;;;;;;4589455;19;19929;-24
2022/05/30 00:57:45;;;;;;;;;;;16.20;99.90;;;;;;4589357;19;20001;-24
2022/05/30 00:59:16;;;;;;;;;;;16.20;99.90;;;;;;4590792;19;19914;-28
2022/05/30 01:00:47;;;;;;;;;;;16.20;99.90;;;;;;4591626;19;19911;-24
2022/05/30 01:02:18;;;;;;;;;;;16.20;99.90;;;;;;4590370;19;19919;-24
2022/05/30 01:07:30;;;;;;;;;;;16.10;99.90;;;;;;4592828;19;19918;-28
2022/05/30 01:09:05;;;;;;;;;;;16.10;99.90;;;;;;4590786;19;19949;-26
2022/05/30 01:10:36;;;;;;;;;;;16.20;99.90;;;;;;4591982;19;19923;-24
2022/05/30 01:12:08;;;;;;;;;;;16.10;99.90;;;;;;4591781;19;19963;-24
2022/05/30 01:13:40;;;;;;;;;;;16.20;99.90;;;;;;4591195;19;20253;-29
2022/05/30 01:15:13;;;;;;;;;;;16.10;99.90;;;;;;4589566;19;19978;-25
2022/05/30 01:16:44;;;;;;;;;;;16.10;99.90;;;;;;4589528;19;20373;-23
2022/05/30 01:18:17;;;;;;;;;;;16.10;99.90;;;;;;4590606;19;19918;-26
2022/05/30 01:20:07;;;;;;;;;;;16.20;99.90;;;;;;4589841;19;19915;-23
2022/05/30 01:21:55;;;;;;;;;;;16.10;99.90;;;;;;4588526;19;19922;-24
2022/05/30 01:23:34;;;;;;;;;;;16.10;99.90;;;;;;4589073;19;19936;-23
2022/05/30 01:25:15;;;;;;;;;;;16.10;99.90;;;;;;4589915;19;19926;-24
2022/05/30 01:26:49;;;;;;;;;;;16.20;99.90;;;;;;4592668;19;19929;-24
2022/05/30 01:28:38;;;;;;;;;;;16.10;99.90;;;;;;4592343;19;19970;-24
2022/05/30 01:30:11;;;;;;;;;;;16.10;99.90;;;;;;4592210;19;19911;-24
2022/05/30 01:31:42;;;;;;;;;;;16.10;99.90;;;;;;4590887;19;19915;-24
2022/05/30 01:33:13;;;;;;;;;;;16.20;99.90;;;;;;4591042;19;20431;-25
2022/05/30 01:34:44;;;;;;;;;;;16.10;99.90;;;;;;4590347;19;19943;-23
2022/05/30 01:36:15;;;;;;;;;;;16.10;99.90;;;;;;4590477;19;19915;-26
2022/05/30 01:37:45;;;;;;;;;;;16.10;99.90;;;;;;4590508;19;19923;-24
2022/05/30 01:39:17;;;;;;;;;;;16.10;99.90;;;;;;4589884;19;19945;-24
2022/05/30 01:40:48;;;;;;;;;;;16.20;99.90;;;;;;4589987;19;20367;-24
2022/05/30 01:42:19;;;;;;;;;;;16.10;99.90;;;;;;4588492;19;19914;-24
2022/05/30 01:43:49;;;;;;;;;;;16.10;99.90;;;;;;4591971;19;19914;-25
2022/05/30 01:45:21;;;;;;;;;;;16.10;99.90;;;;;;4591915;19;19922;-29
2022/05/30 01:46:52;;;;;;;;;;;16.10;99.90;;;;;;4591425;19;20272;-27
2022/05/30 01:48:23;;;;;;;;;;;16.10;99.90;;;;;;4591010;19;19922;-24
2022/05/30 01:49:54;;;;;;;;;;;16.10;99.90;;;;;;4590478;19;19926;-27
2022/05/30 01:51:25;;;;;;;;;;;16.10;99.90;;;;;;4590587;19;19923;-24
2022/05/30 01:52:56;;;;;;;;;;;16.10;99.90;;;;;;4589847;19;19923;-25
2022/05/30 01:54:27;;;;;;;;;;;16.20;99.90;;;;;;4589397;19;20344;-24
2022/05/30 01:55:58;;;;;;;;;;;16.10;99.90;;;;;;4589446;19;19911;-29
2022/05/30 01:57:29;;;;;;;;;;;16.10;99.90;;;;;;4589746;19;19918;-26
2022/05/30 01:59:00;;;;;;;;;;;16.20;99.90;;;;;;4590576;19;19933;-26
2022/05/30 02:00:31;;;;;;;;;;;16.10;99.90;;;;;;4591336;19;19945;-23
2022/05/30 02:02:02;;;;;;;;;;;16.10;99.90;;;;;;4590363;19;19915;-25
2022/05/30 02:03:33;;;;;;;;;;;16.10;99.90;;;;;;4590444;19;19935;-26
2022/05/30 02:05:05;;;;;;;;;;;16.10;99.90;;;;;;4590040;19;19922;-26
2022/05/30 02:06:35;;;;;;;;;;;16.20;99.90;;;;;;4589587;19;19918;-23
2022/05/30 02:08:07;;;;;;;;;;;16.10;99.90;;;;;;4589652;19;19915;-24
2022/05/30 02:09:38;;;;;;;;;;;16.10;99.90;;;;;;4588994;19;19911;-26
2022/05/30 02:11:10;;;;;;;;;;;16.10;99.90;;;;;;4589117;19;19942;-25
2022/05/30 02:12:41;;;;;;;;;;;16.10;99.90;;;;;;4591525;19;20284;-29
2022/05/30 02:14:12;;;;;;;;;;;16.10;99.90;;;;;;4591385;19;19918;-25
2022/05/30 02:17:33;;;;;;;;;;;16.10;99.90;;;;;;4590112;19;19915;-24
2022/05/30 02:19:04;;;;;;;;;;;16.10;99.90;;;;;;4589377;19;20278;-28
2022/05/30 02:20:37;;;;;;;;;;;16.10;99.90;;;;;;4591346;19;19990;-28
2022/05/30 02:22:10;;;;;;;;;;;16.10;99.90;;;;;;4593377;19;19936;-25
2022/05/30 02:23:41;;;;;;;;;;;16.20;99.90;;;;;;4593268;19;19937;-25
2022/05/30 02:25:12;;;;;;;;;;;16.10;99.90;;;;;;4593554;19;19915;-24
2022/05/30 02:26:43;;;;;;;;;;;16.10;99.90;;;;;;4595247;19;19915;-26
2022/05/30 02:28:14;;;;;;;;;;;16.10;99.90;;;;;;4595271;19;19923;-25
2022/05/30 02:29:45;;;;;;;;;;;16.10;99.90;;;;;;4595185;19;19933;-24
2022/05/30 02:31:16;;;;;;;;;;;16.10;99.90;;;;;;4594990;19;20263;-23
2022/05/30 02:32:47;;;;;;;;;;;16.10;99.90;;;;;;4595031;19;19914;-25
2022/05/30 02:37:57;;;;;;;;;;;16.10;99.90;;;;;;4594353;19;19911;-25
2022/05/30 02:39:28;;;;;;;;;;;16.10;99.90;;;;;;4594125;19;19949;-29
2022/05/30 02:40:59;;;;;;;;;;;16.10;99.90;;;;;;4593633;19;19945;-26
2022/05/30 02:42:30;;;;;;;;;;;16.10;99.90;;;;;;4591518;19;19932;-27
2022/05/30 02:44:01;;;;;;;;;;;16.10;99.90;;;;;;4593283;19;20245;-25
2022/05/30 02:45:32;;;;;;;;;;;16.10;99.90;;;;;;4595123;19;19934;-24
2022/05/30 02:47:03;;;;;;;;;;;16.10;99.90;;;;;;4595062;19;19995;-24
2022/05/30 02:48:34;;;;;;;;;;;16.10;99.90;;;;;;4595145;19;19918;-24
2022/05/30 02:50:05;;;;;;;;;;;16.10;99.90;;;;;;4593659;19;19911;-23
2022/05/30 02:51:36;;;;;;;;;;;16.10;99.90;;;;;;4593913;19;19978;-24
2022/05/30 02:53:07;;;;;;;;;;;16.10;99.90;;;;;;4593783;19;20321;-25
2022/05/30 02:54:39;;;;;;;;;;;16.10;99.90;;;;;;4593723;19;19910;-28
2022/05/30 02:56:10;;;;;;;;;;;16.10;99.90;;;;;;4593161;19;19926;-23
2022/05/30 02:57:41;;;;;;;;;;;16.10;99.90;;;;;;4591325;19;20340;-24
2022/05/30 02:59:12;;;;;;;;;;;16.10;99.90;;;;;;4592608;19;19919;-25
2022/05/30 03:00:43;;;;;;;;;;;16.10;99.90;;;;;;4595674;19;19919;-25
2022/05/30 03:02:14;;;;;;;;;;;16.10;99.90;;;;;;4594315;19;19914;-23
2022/05/30 03:03:45;;;;;;;;;;;16.10;99.90;;;;;;4593259;19;19926;-27
2022/05/30 03:05:16;;;;;;;;;;;16.10;99.90;;;;;;4594040;19;20364;-25
2022/05/30 03:06:48;;;;;;;;;;;16.00;99.90;;;;;;4594019;19;19970;-24
2022/05/30 03:08:20;;;;;;;;;;;16.00;99.90;;;;;;4593695;19;19922;-26
2022/05/30 03:09:51;;;;;;;;;;;16.10;99.90;;;;;;4592953;19;19919;-24
2022/05/30 03:11:22;;;;;;;;;;;16.10;99.90;;;;;;4590546;19;19922;-28
2022/05/30 03:12:53;;;;;;;;;;;16.00;99.90;;;;;;4592230;19;19922;-25
2022/05/30 03:14:24;;;;;;;;;;;16.00;99.90;;;;;;4595143;19;20217;-24
2022/05/30 03:15:55;;;;;;;;;;;16.10;99.90;;;;;;4593463;19;19943;-25
2022/05/30 03:17:26;;;;;;;;;;;16.10;99.90;;;;;;4592586;19;20322;-24
2022/05/30 03:18:57;;;;;;;;;;;16.10;99.90;;;;;;4594223;19;20249;-24
2022/05/30 03:20:28;;;;;;;;;;;16.10;99.90;;;;;;4593732;19;20253;-23
2022/05/30 03:21:59;;;;;;;;;;;16.10;99.90;;;;;;4591073;19;20273;-24
2022/05/30 03:23:29;;;;;;;;;;;16.10;99.90;;;;;;4592491;19;19918;-23
2022/05/30 03:25:00;;;;;;;;;;;16.10;99.90;;;;;;4592720;19;19943;-25
2022/05/30 03:26:31;;;;;;;;;;;16.10;99.90;;;;;;4594393;19;20385;-26
2022/05/30 03:28:02;;;;;;;;;;;16.10;99.90;;;;;;4594150;19;20462;-24
2022/05/30 03:29:33;;;;;;;;;;;16.10;99.90;;;;;;4593593;19;19938;-24
2022/05/30 03:31:07;;;;;;;;;;;16.10;99.90;;;;;;4593226;19;19919;-27
2022/05/30 03:32:38;;;;;;;;;;;16.10;99.90;;;;;;4590103;19;19925;-25
2022/05/30 03:34:09;;;;;;;;;;;16.10;99.90;;;;;;4592421;19;19925;-25
2022/05/30 03:35:40;;;;;;;;;;;16.10;99.90;;;;;;4592279;19;20260;-26
2022/05/30 03:37:11;;;;;;;;;;;16.10;99.90;;;;;;4592037;19;19922;-23
2022/05/30 03:38:42;;;;;;;;;;;16.10;99.90;;;;;;4594799;19;19922;-25
2022/05/30 03:40:13;;;;;;;;;;;16.00;99.90;;;;;;4594372;19;20397;-25
2022/05/30 03:41:45;;;;;;;;;;;16.00;99.90;;;;;;4593459;19;20007;-26
2022/05/30 03:43:15;;;;;;;;;;;16.00;99.90;;;;;;4592092;19;20365;-23
2022/05/30 03:44:46;;;;;;;;;;;16.00;99.90;;;;;;4596002;19;19915;-25
2022/05/30 03:46:17;;;;;;;;;;;16.10;99.90;;;;;;4593892;19;20389;-26
2022/05/30 03:47:49;;;;;;;;;;;16.00;99.90;;;;;;4594543;19;19923;-23
2022/05/30 03:49:19;;;;;;;;;;;16.10;99.90;;;;;;4594835;19;19970;-23
2022/05/30 03:50:50;;;;;;;;;;;16.10;99.90;;;;;;4595499;19;19911;-24
2022/05/30 03:52:21;;;;;;;;;;;16.00;99.90;;;;;;4592805;19;19978;-25
2022/05/30 03:53:52;;;;;;;;;;;16.00;99.90;;;;;;4593037;19;19914;-23
2022/05/30 03:55:23;;;;;;;;;;;16.00;99.90;;;;;;4593519;19;19921;-27
2022/05/30 03:56:54;;;;;;;;;;;16.00;99.90;;;;;;4592171;19;19931;-23
2022/05/30 03:58:25;;;;;;;;;;;16.10;99.90;;;;;;4592269;19;19995;-24
2022/05/30 03:59:56;;;;;;;;;;;16.10;99.90;;;;;;4594137;19;19918;-23
2022/05/30 04:01:27;;;;;;;;;;;16.20;99.90;;;;;;4594336;19;19919;-24
2022/05/30 04:02:58;;;;;;;;;;;15.10;99.90;;;;;;4595474;19;19974;-26
2022/05/30 04:04:29;;;;;;;;;;;13.80;99.90;;;;;;4593283;19;19926;-24
2022/05/30 04:06:00;;;;;;;;;;;13.30;99.90;;;;;;4595210;19;19918;-23
2022/05/30 04:07:31;;;;;;;;;;;13.10;99.90;;;;;;4595047;19;19914;-23
2022/05/30 04:09:02;;;;;;;;;;;13.00;99.90;;;;;;4595723;19;19947;-22
2022/05/30 04:10:33;;;;;;;;;;;13.00;99.90;;;;;;4593755;19;20345;-22
2022/05/30 04:12:04;;;;;;;;;;;12.90;99.90;;;;;;4592300;19;19915;-22
2022/05/30 04:13:35;;;;;;;;;;;12.90;99.90;;;;;;4593419;19;19924;-24
2022/05/30 04:15:07;;;;;;;;;;;12.90;99.90;;;;;;4593979;19;20288;-25
2022/05/30 04:16:38;;;;;;;;;;;12.90;99.90;;;;;;4594712;19;19982;-25
2022/05/30 04:18:09;;;;;;;;;;;12.90;99.90;;;;;;4592722;19;19926;-23
2022/05/30 04:19:40;;;;;;;;;;;12.90;99.90;;;;;;4594582;19;19970;-23
2022/05/30 04:21:11;;;;;;;;;;;12.90;99.90;;;;;;4593948;19;19932;-23
2022/05/30 04:22:44;;;;;;;;;;;12.90;99.90;;;;;;4593590;19;19971;-22
2022/05/30 04:24:15;;;;;;;;;;;13.00;99.90;;;;;;4592962;19;19915;-23
2022/05/30 04:25:46;;;;;;;;;;;13.00;99.90;;;;;;4593461;19;19932;-24
2022/05/30 04:27:17;;;;;;;;;;;13.00;99.90;;;;;;4592617;19;19914;-22
2022/05/30 04:28:48;;;;;;;;;;;13.00;99.90;;;;;;4593833;19;19952;-23
2022/05/30 04:30:19;;;;;;;;;;;13.00;99.90;;;;;;4593032;19;19911;-23
2022/05/30 04:31:50;;;;;;;;;;;13.00;99.90;;;;;;4593021;19;19910;-22
2022/05/30 04:33:20;;;;;;;;;;;13.00;99.90;;;;;;4592415;19;20256;-22
2022/05/30 04:34:52;;;;;;;;;;;13.00;99.90;;;;;;4592496;19;19915;-22
2022/05/30 04:36:23;;;;;;;;;;;13.00;99.90;;;;;;4591348;19;20349;-23
2022/05/30 04:37:53;;;;;;;;;;;13.00;99.90;;;;;;4591790;19;20314;-24
2022/05/30 04:39:24;;;;;;;;;;;13.00;99.90;;;;;;4590924;19;19970;-23
2022/05/30 04:40:56;;;;;;;;;;;13.00;99.90;;;;;;4592838;19;19926;-23
2022/05/30 04:42:27;;;;;;;;;;;13.00;99.90;;;;;;4591388;19;19914;-22
2022/05/30 04:43:59;;;;;;;;;;;13.00;99.90;;;;;;4591547;19;20245;-22
2022/05/30 04:45:30;;;;;;;;;;;13.10;99.90;;;;;;4592278;19;19918;-24
2022/05/30 04:47:01;;;;;;;;;;;13.10;99.90;;;;;;4592447;19;19937;-22
2022/05/30 04:48:32;;;;;;;;;;;13.10;99.90;;;;;;4591955;19;19929;-23
2022/05/30 04:50:03;;;;;;;;;;;13.10;99.90;;;;;;4591708;19;19959;-22
2022/05/30 04:51:34;;;;;;;;;;;13.10;99.90;;;;;;4592294;19;19914;-22
2022/05/30 04:53:05;;;;;;;;;;;13.10;99.90;;;;;;4592754;19;19919;-22
2022/05/30 04:54:36;;;;;;;;;;;13.10;99.90;;;;;;4591573;19;19914;-23
2022/05/30 04:56:07;;;;;;;;;;;13.10;99.90;;;;;;4591765;19;19919;-22
2022/05/30 04:57:45;;;;;;;;;;;13.20;99.90;;;;;;4592211;19;19919;-22
2022/05/30 04:59:16;;;;;;;;;;;13.20;99.90;;;;;;4591940;19;19918;-22
2022/05/30 05:00:47;;;;;;;;;;;13.20;99.90;;;;;;4592765;19;20321;-21
2022/05/30 05:02:17;;;;;;;;;;;13.30;99.90;;;;;;4591216;19;19918;-23
2022/05/30 05:03:48;;;;;;;;;;;13.30;99.90;;;;;;4592153;19;19915;-23
2022/05/30 05:05:20;;;;;;;;;;;13.30;99.90;;;;;;4592169;19;19915;-25
2022/05/30 05:06:50;;;;;;;;;;;13.80;99.90;;;;;;4592071;19;19915;-26
2022/05/30 05:08:31;;;;;;;;;;;14.20;99.90;;;;;;4592118;19;19934;-23
2022/05/30 05:10:02;;;;;;;;;;;14.50;99.90;;;;;;4592455;19;19927;-24
2022/05/30 05:11:34;;;;;;;;;;;14.70;99.90;;;;;;4592098;19;19938;-26
2022/05/30 05:13:05;;;;;;;;;;;14.90;99.90;;;;;;4589776;19;19926;-27
2022/05/30 05:14:36;;;;;;;;;;;15.00;99.90;;;;;;4588238;19;20325;-25
2022/05/30 05:16:07;;;;;;;;;;;15.20;99.90;;;;;;4591810;19;19915;-24
2022/05/30 05:17:38;;;;;;;;;;;15.20;99.90;;;;;;4590700;19;19923;-23
2022/05/30 05:19:09;;;;;;;;;;;15.30;99.90;;;;;;4591395;19;19922;-24
2022/05/30 05:20:43;;;;;;;;;;;15.40;99.90;;;;;;4590360;19;19932;-24
2022/05/30 05:22:14;;;;;;;;;;;15.40;99.90;;;;;;4591320;19;20257;-24
2022/05/30 05:23:45;;;;;;;;;;;15.50;99.90;;;;;;4592251;19;19978;-23
2022/05/30 05:25:16;;;;;;;;;;;15.50;99.90;;;;;;4591469;19;19914;-24
2022/05/30 05:26:48;;;;;;;;;;;15.50;99.90;;;;;;4591802;19;19931;-25
2022/05/30 05:28:18;;;;;;;;;;;15.60;99.90;;;;;;4590366;19;19915;-29
2022/05/30 05:29:52;;;;;;;;;;;15.60;99.90;;;;;;4591040;19;19914;-23
2022/05/30 05:31:24;;;;;;;;;;;15.70;99.90;;;;;;4589932;19;19906;-26
2022/05/30 05:32:55;;;;;;;;;;;15.70;99.90;;;;;;4590815;19;20456;-24
2022/05/30 05:34:26;;;;;;;;;;;15.70;99.90;;;;;;4591746;19;19923;-24
2022/05/30 05:35:57;;;;;;;;;;;15.80;99.90;;;;;;4591549;19;19911;-23
2022/05/30 05:37:28;;;;;;;;;;;15.80;99.90;;;;;;4590894;19;19914;-24
2022/05/30 05:38:59;;;;;;;;;;;15.80;99.90;;;;;;4590689;19;19974;-26
2022/05/30 05:40:30;;;;;;;;;;;15.90;99.90;;;;;;4590394;19;19915;-23
2022/05/30 05:42:01;;;;;;;;;;;15.90;99.90;;;;;;4589202;19;20353;-25
2022/05/30 05:43:33;;;;;;;;;;;15.90;99.90;;;;;;4589216;19;19915;-24
2022/05/30 05:45:05;;;;;;;;;;;16.00;99.90;;;;;;4588512;19;19934;-23
2022/05/30 05:46:36;;;;;;;;;;;16.10;99.90;;;;;;4589382;19;19923;-23
2022/05/30 05:48:08;;;;;;;;;;;16.10;99.90;;;;;;4589208;19;19915;-24
2022/05/30 05:49:39;;;;;;;;;;;16.10;99.90;;;;;;4590477;19;19917;-24
2022/05/30 05:51:10;;;;;;;;;;;16.20;99.90;;;;;;4591692;19;20342;-24
2022/05/30 05:52:41;;;;;;;;;;;16.20;99.90;;;;;;4590447;19;19933;-24
2022/05/30 05:54:12;;;;;;;;;;;16.30;99.90;;;;;;4590218;19;19919;-25
2022/05/30 05:55:43;;;;;;;;;;;16.30;99.90;;;;;;4587936;19;19915;-27
2022/05/30 05:57:14;;;;;;;;;;;16.30;99.90;;;;;;4589575;19;19918;-24
2022/05/30 05:58:45;;;;;;;;;;;16.30;99.90;;;;;;4587902;19;19921;-22
2022/05/30 06:00:16;;;;;;;;;;;16.40;99.90;;;;;;4589260;19;19926;-25
2022/05/30 06:01:48;;;;;;;;;;;16.30;99.90;;;;;;4591034;19;20300;-24
2022/05/30 06:03:18;;;;;;;;;;;16.30;99.90;;;;;;4591724;19;19922;-23
2022/05/30 06:04:53;;;;;;;;;;;16.20;99.90;;;;;;4590848;19;20373;-27
2022/05/30 06:06:26;;;;;;;;;;;16.20;99.90;;;;;;4588973;19;19986;-24
2022/05/30 06:07:59;;;;;;;;;;;16.20;99.90;;;;;;4590138;19;19911;-22
2022/05/30 06:09:30;;;;;;;;;;;16.30;99.90;;;;;;4589007;19;20337;-23
2022/05/30 06:11:11;;;;;;;;;;;16.30;99.90;;;;;;4588776;19;19937;-26
2022/05/30 06:12:42;;;;;;;;;;;16.30;99.90;;;;;;4589491;19;20268;-25
2022/05/30 06:14:13;;;;;;;;;;;16.40;99.90;;;;;;4589328;19;19915;-28
2022/05/30 06:15:44;;;;;;;;;;;16.40;99.90;;;;;;4589731;19;20281;-25
2022/05/30 06:17:15;;;;;;;;;;;16.40;99.90;;;;;;4589678;19;20281;-26
2022/05/30 06:18:47;;;;;;;;;;;16.40;99.90;;;;;;4590332;19;19926;-24
2022/05/30 06:20:18;;;;;;;;;;;16.40;99.90;;;;;;4590909;19;20231;-27
2022/05/30 06:21:48;;;;;;;;;;;16.40;99.90;;;;;;4589926;19;19925;-24
2022/05/30 06:23:19;;;;;;;;;;;16.40;99.90;;;;;;4590343;19;19927;-28
2022/05/30 06:24:50;;;;;;;;;;;16.30;99.90;;;;;;4589783;19;19937;-25
2022/05/30 06:26:22;;;;;;;;;;;16.40;99.90;;;;;;4590695;19;19915;-23
2022/05/30 06:27:53;;;;;;;;;;;16.40;99.90;;;;;;4590219;19;19915;-25
2022/05/30 06:29:23;;;;;;;;;;;16.30;99.90;;;;;;4590571;19;20340;-28
2022/05/30 06:30:55;;;;;;;;;;;16.30;99.90;;;;;;4590943;19;19982;-24
2022/05/30 06:32:26;;;;;;;;;;;16.30;99.90;;;;;;4590868;19;19914;-25
2022/05/30 06:34:01;;;;;;;;;;;16.30;99.90;;;;;;4589013;19;19919;-30
2022/05/30 06:35:32;;;;;;;;;;;16.30;99.90;;;;;;4589582;19;20251;-27
2022/05/30 06:37:03;;;;;;;;;;;16.30;99.90;;;;;;4589395;19;19919;-26
2022/05/30 06:38:35;;;;;;;;;;;16.30;99.90;;;;;;4590035;19;19943;-26
2022/05/30 06:40:06;;;;;;;;;;;16.40;99.90;;;;;;4590129;19;19914;-23
2022/05/30 06:41:37;;;;;;;;;;;16.40;99.90;;;;;;4590511;19;19918;-26
2022/05/30 06:43:08;;;;;;;;;;;16.40;99.90;;;;;;4590521;19;20358;-24
2022/05/30 06:44:39;;;;;;;;;;;16.40;99.90;;;;;;4589930;19;19918;-26
2022/05/30 06:46:10;;;;;;;;;;;16.40;99.90;;;;;;4589948;19;19978;-23
2022/05/30 06:47:41;;;;;;;;;;;16.40;99.90;;;;;;4590210;19;19990;-24
2022/05/30 06:49:12;;;;;;;;;;;16.40;99.90;;;;;;4590877;19;19985;-23
2022/05/30 06:50:43;;;;;;;;;;;16.40;99.90;;;;;;4589976;19;20281;-24
2022/05/30 06:52:14;;;;;;;;;;;16.40;99.90;;;;;;4590534;19;19995;-23
2022/05/30 06:53:45;;;;;;;;;;;16.40;99.90;;;;;;4590368;19;19914;-25
2022/05/30 06:55:16;;;;;;;;;;;16.50;99.90;;;;;;4590215;19;19921;-24
2022/05/30 06:58:37;;;;;;;;;;;16.40;99.90;;;;;;4589252;19;19978;-24
2022/05/30 07:00:08;;;;;;;;;;;16.40;99.90;;;;;;4590222;19;19915;-24
2022/05/30 07:01:39;;;;;;;;;;;16.40;99.90;;;;;;4588668;19;20010;-29
2022/05/30 07:03:11;;;;;;;;;;;16.40;99.90;;;;;;4589351;19;19915;-23
2022/05/30 07:04:42;;;;;;;;;;;16.30;99.90;;;;;;4590148;19;19919;-23
2022/05/30 07:06:14;;;;;;;;;;;16.40;99.90;;;;;;4590287;19;19917;-21
2022/05/30 07:07:46;;;;;;;;;;;16.40;99.90;;;;;;4594282;19;20245;-26
2022/05/30 07:09:17;;;;;;;;;;;16.40;99.90;;;;;;4594079;19;19922;-26
2022/05/30 07:10:48;;;;;;;;;;;16.30;99.90;;;;;;4594634;19;19992;-23
2022/05/30 07:12:19;;;;;;;;;;;16.40;99.90;;;;;;4593668;19;19918;-23
2022/05/30 07:13:50;;;;;;;;;;;16.40;99.90;;;;;;4593773;19;19978;-25
2022/05/30 07:15:21;;;;;;;;;;;16.40;99.90;;;;;;4594241;19;20329;-24
2022/05/30 07:16:52;;;;;;;;;;;16.40;99.90;;;;;;4593270;19;19927;-23
2022/05/30 07:18:23;;;;;;;;;;;16.40;99.90;;;;;;4594005;19;19915;-23
2022/05/30 07:19:56;;;;;;;;;;;16.40;99.90;;;;;;4593831;19;19945;-23
2022/05/30 07:21:27;;;;;;;;;;;16.50;99.90;;;;;;4593691;19;19929;-24
2022/05/30 07:22:58;;;;;;;;;;;16.50;99.90;;;;;;4591952;19;19915;-24
2022/05/30 07:24:29;;;;;;;;;;;16.50;99.90;;;;;;4594838;19;19992;-25
2022/05/30 07:26:03;;;;;;;;;;;16.50;99.90;;;;;;4593510;19;20262;-24
2022/05/30 07:27:38;;;;;;;;;;;16.50;99.90;;;;;;4593175;19;20011;-26
2022/05/30 07:29:28;;;;;;;;;;;16.50;99.90;;;;;;4594655;19;20340;-23
2022/05/30 07:31:08;;;;;;;;;;;16.60;99.90;;;;;;4594295;19;19936;-22
2022/05/30 07:32:42;;;;;;;;;;;16.60;99.90;;;;;;4594310;19;19927;-24
2022/05/30 07:34:13;;;;;;;;;;;16.60;99.90;;;;;;4592396;19;19917;-23
2022/05/30 07:35:44;;;;;;;;;;;16.60;99.90;;;;;;4592923;19;19919;-22
2022/05/30 07:37:16;;;;;;;;;;;16.50;99.90;;;;;;4592257;19;19917;-22
2022/05/30 07:38:48;;;;;;;;;;;16.60;99.90;;;;;;4592173;19;19933;-24
2022/05/30 07:40:21;;;;;;;;;;;16.60;99.90;;;;;;4592534;19;19935;-24
2022/05/30 07:41:53;;;;;;;;;;;16.70;99.90;;;;;;4591104;19;19922;-22
2022/05/30 07:43:25;;;;;;;;;;;16.70;99.90;;;;;;4592403;19;19985;-22
2022/05/30 07:44:59;;;;;;;;;;;16.70;99.90;;;;;;4590397;19;19960;-23
2022/05/30 07:46:32;;;;;;;;;;;16.70;99.90;;;;;;4593698;19;19927;-23
2022/05/30 07:48:04;;;;;;;;;;;16.70;99.90;;;;;;4593947;19;19922;-26
2022/05/30 07:49:36;;;;;;;;;;;16.60;99.90;;;;;;4593946;19;20329;-23
2022/05/30 07:51:08;;;;;;;;;;;16.60;99.90;;;;;;4593744;19;19952;-28
2022/05/30 07:52:39;;;;;;;;;;;16.60;99.90;;;;;;4593380;19;19918;-23
2022/05/30 07:54:10;;;;;;;;;;;16.60;99.90;;;;;;4593865;19;20243;-26
2022/05/30 07:55:42;;;;;;;;;;;16.60;99.90;;;;;;4593849;19;19948;-23
2022/05/30 07:57:13;;;;;;;;;;;16.60;99.90;;;;;;4593395;19;20351;-24
2022/05/30 07:58:44;;;;;;;;;;;16.60;99.90;;;;;;4592449;19;19926;-24
2022/05/30 08:00:15;;;;;;;;;;;16.60;99.90;;;;;;4592225;19;19918;-25
2022/05/30 08:01:46;;;;;;;;;;;16.60;99.90;;;;;;4592138;19;19919;-23
2022/05/30 08:03:17;;;;;;;;;;;16.60;99.90;;;;;;4592443;19;19982;-26
2022/05/30 08:04:48;;;;;;;;;;;16.60;99.90;;;;;;4593012;19;19915;-24
2022/05/30 08:06:20;;;;;;;;;;;16.60;99.90;;;;;;4594127;19;19974;-24
2022/05/30 08:07:52;;;;;;;;;;;16.60;99.90;;;;;;4592724;19;19919;-28
2022/05/30 08:09:23;;;;;;;;;;;16.50;99.90;;;;;;4593168;19;19931;-26
2022/05/30 08:10:54;;;;;;;;;;;16.40;99.90;;;;;;4593528;19;19934;-28
2022/05/30 08:12:26;;;;;;;;;;;16.40;99.90;;;;;;4593304;19;19919;-24
2022/05/30 08:13:57;;;;;;;;;;;16.40;99.90;;;;;;4592865;19;19918;-22
2022/05/30 08:15:28;;;;;;;;;;;16.20;99.90;;;;;;4593313;19;19915;-24
2022/05/30 08:16:58;;;;;;;;;;;16.00;99.90;;;;;;4592465;19;19919;-26
2022/05/30 08:18:30;;;;;;;;;;;15.90;99.90;;;;;;4590771;19;19911;-25
2022/05/30 08:20:01;;;;;;;;;;;15.80;99.90;;;;;;4591637;19;20301;-23
2022/05/30 08:21:33;;;;;;;;;;;15.70;99.90;;;;;;4592765;19;19915;-23
2022/05/30 08:23:04;;;;;;;;;;;15.70;99.90;;;;;;4592699;19;19918;-22
2022/05/30 08:24:39;;;;;;;;;;;15.60;99.90;;;;;;4592777;19;20317;-24
2022/05/30 08:26:10;;;;;;;;;;;15.70;99.90;;;;;;4592908;19;19925;-26
2022/05/30 08:27:44;;;;;;;;;;;15.70;99.90;;;;;;4591721;19;20346;-24
2022/05/30 08:29:15;;;;;;;;;;;15.80;99.90;;;;;;4592558;19;19915;-23
2022/05/30 08:30:46;;;;;;;;;;;15.80;99.90;;;;;;4592280;19;19935;-23
2022/05/30 08:32:17;;;;;;;;;;;15.70;99.90;;;;;;4592856;19;19922;-27
2022/05/30 08:33:48;;;;;;;;;;;15.60;99.90;;;;;;4592867;19;19922;-24
2022/05/30 08:35:19;;;;;;;;;;;15.60;99.90;;;;;;4593161;19;19910;-24
2022/05/30 08:36:50;;;;;;;;;;;15.60;99.90;;;;;;4592499;19;19946;-25
2022/05/30 08:38:21;;;;;;;;;;;15.50;99.90;;;;;;4592457;19;19998;-25
2022/05/30 08:41:47;;;;;;;;;;;15.50;99.90;;;;;;4592404;19;19911;-22
2022/05/30 08:43:24;;;;;;;;;;;15.50;99.90;;;;;;4590766;19;19919;-25
2022/05/30 08:44:55;;;;;;;;;;;15.30;99.90;;;;;;4591699;19;20321;-24
2022/05/30 08:46:33;;;;;;;;;;;15.10;99.90;;;;;;4592720;19;19922;-28
2022/05/30 08:48:08;;;;;;;;;;;15.00;99.90;;;;;;4592566;19;20257;-24
2022/05/30 08:49:43;;;;;;;;;;;15.10;99.90;;;;;;4590859;19;19914;-23
2022/05/30 08:51:21;;;;;;;;;;;15.10;99.90;;;;;;4591329;19;19974;-23
2022/05/30 08:52:52;;;;;;;;;;;15.20;99.90;;;;;;4592352;19;19923;-24
2022/05/30 08:54:26;;;;;;;;;;;15.20;99.90;;;;;;4592837;19;19951;-23
2022/05/30 08:56:09;;;;;;;;;;;15.30;99.90;;;;;;4591828;19;20329;-23
2022/05/30 08:57:42;;;;;;;;;;;15.30;99.90;;;;;;4590857;19;20366;-24
2022/05/30 08:59:23;;;;;;;;;;;15.30;99.90;;;;;;4590707;19;19925;-23
2022/05/30 09:00:55;;;;;;;;;;;15.40;99.90;;;;;;4592524;19;19919;-23
2022/05/30 09:02:32;;;;;;;;;;;15.30;99.90;;;;;;4591641;19;19923;-25
2022/05/30 09:04:16;;;;;;;;;;;15.40;99.90;;;;;;4590521;19;20325;-23
2022/05/30 09:05:54;;;;;;;;;;;15.40;99.90;;;;;;4591128;19;19915;-24
2022/05/30 09:07:26;;;;;;;;;;;15.30;99.90;;;;;;4590919;19;19911;-23